Time;durP1;ratioP1;P1;durP2;ratioP2;P2;SDS_P1;SDS_P2;PMS_P1;PMS_P2;Temp;Humidity;BMP_temperature;BMP_pressure;BME280_temperature;BME280_humidity;BME280_pressure;Samples;Min_cycle;Max_cycle;Signal;HPM_P1;HPM_P2
2023/06/09 00:00:56;;;;;;;7.60;4.38;;;;;;;26.27;34.33;101191.34;5024187;27;97749;-67
2023/06/09 00:03:22;;;;;;;12.57;5.25;;;;;;;26.32;34.25;101197.16;5022641;27;97283;-66
2023/06/09 00:05:48;;;;;;;10.73;4.95;;;;;;;26.41;34.21;101193.59;5020956;27;99311;-66
2023/06/09 00:08:15;;;;;;;11.20;4.82;;;;;;;26.29;33.91;101194.75;5020064;27;99227;-67
2023/06/09 00:10:42;;;;;;;7.53;4.25;;;;;;;26.40;33.82;101194.59;5020653;27;98861;-66
2023/06/09 00:13:09;;;;;;;10.40;4.63;;;;;;;26.44;33.66;101193.31;5027166;27;96908;-66
2023/06/09 00:15:36;;;;;;;10.82;4.82;;;;;;;26.49;33.57;101195.59;5016164;27;99187;-66
2023/06/09 00:18:03;;;;;;;5.97;4.65;;;;;;;26.31;33.91;101195.47;5015960;27;99206;-66
2023/06/09 00:20:33;;;;;;;8.82;4.85;;;;;;;26.26;33.70;101189.63;5014959;27;98973;-67
2023/06/09 00:23:00;;;;;;;7.53;4.38;;;;;;;26.34;33.97;101189.75;5028250;27;99174;-67
2023/06/09 00:25:26;;;;;;;6.47;4.43;;;;;;;26.22;33.99;101181.91;5033302;27;98998;-66
2023/06/09 00:27:54;;;;;;;8.05;4.40;;;;;;;26.19;34.17;101178.47;5030738;27;100699;-66
2023/06/09 00:30:22;;;;;;;9.73;4.18;;;;;;;26.23;34.00;101189.91;5017092;27;97407;-66
2023/06/09 00:32:48;;;;;;;13.25;4.95;;;;;;;26.06;34.14;101177.91;5022099;27;98800;-66
2023/06/09 00:35:15;;;;;;;10.10;4.63;;;;;;;26.11;34.12;101178.38;5018928;27;101105;-66
2023/06/09 00:37:41;;;;;;;14.02;4.55;;;;;;;26.14;34.41;101183.47;5018039;27;99073;-66
2023/06/09 00:40:09;;;;;;;9.05;4.53;;;;;;;26.13;34.59;101183.63;5029058;27;96978;-66
2023/06/09 00:42:35;;;;;;;6.75;4.30;;;;;;;26.03;35.11;101178.22;5039443;27;96984;-66
2023/06/09 00:45:05;;;;;;;12.18;4.90;;;;;;;25.90;35.06;101182.22;5042827;27;99430;-67
2023/06/09 00:47:31;;;;;;;9.00;4.90;;;;;;;25.80;35.62;101182.19;5037269;27;99162;-65
2023/06/09 00:49:58;;;;;;;6.63;4.20;;;;;;;26.00;35.17;101180.34;5030404;27;96852;-66
2023/06/09 00:52:26;;;;;;;11.15;4.43;;;;;;;25.88;35.43;101181.50;5021717;27;96837;-66
2023/06/09 00:54:52;;;;;;;6.20;4.20;;;;;;;25.94;35.49;101184.47;5031592;27;99057;-67
2023/06/09 00:57:19;;;;;;;11.68;5.00;;;;;;;25.87;35.77;101182.47;5028674;27;100881;-66
2023/06/09 00:59:47;;;;;;;9.70;4.75;;;;;;;25.84;35.40;101188.19;5019476;27;97880;-66
2023/06/09 01:02:14;;;;;;;9.45;5.03;;;;;;;25.63;35.86;101191.88;5023688;27;98131;-67
2023/06/09 01:04:49;;;;;;;11.55;5.20;;;;;;;25.77;35.47;101180.66;5017988;27;97812;-66
2023/06/09 01:07:24;;;;;;;9.70;4.75;;;;;;;25.66;36.15;101183.50;5017612;27;99015;-66
2023/06/09 01:09:57;;;;;;;10.65;5.30;;;;;;;25.63;35.98;101196.44;5018219;27;99208;-66
2023/06/09 01:12:35;;;;;;;14.80;4.53;;;;;;;25.42;36.84;101188.38;5024362;27;96944;-67
2023/06/09 01:15:07;;;;;;;8.63;5.05;;;;;;;25.51;36.79;101192.97;5018667;27;98999;-66
2023/06/09 01:17:37;;;;;;;8.15;5.40;;;;;;;25.45;36.67;101193.53;5020781;27;98796;-66
2023/06/09 01:20:05;;;;;;;9.85;5.18;;;;;;;25.33;37.02;101194.66;5019572;27;99056;-66
2023/06/09 01:22:42;;;;;;;11.40;6.22;;;;;;;25.33;37.32;101186.53;5029829;27;97622;-66
2023/06/09 01:25:26;;;;;;;9.35;5.45;;;;;;;25.28;37.35;101191.47;5033774;27;99036;-66
2023/06/09 01:27:57;;;;;;;12.05;5.32;;;;;;;25.18;37.48;101202.28;5027996;27;98911;-67
2023/06/09 01:30:29;;;;;;;12.02;6.18;;;;;;;25.24;37.42;101192.78;5017634;27;98566;-66
2023/06/09 01:32:57;;;;;;;10.75;5.97;;;;;;;25.41;37.35;101184.84;5020894;27;96958;-66
2023/06/09 01:35:24;;;;;;;9.75;5.43;;;;;;;25.40;37.51;101191.22;5017574;27;97716;-66
2023/06/09 01:37:51;;;;;;;10.68;5.35;;;;;;;25.21;37.77;101193.88;5016877;27;99444;-66
2023/06/09 01:40:20;;;;;;;7.75;5.50;;;;;;;25.13;38.16;101198.28;5016840;27;98420;-66
2023/06/09 01:42:46;;;;;;;8.18;5.63;;;;;;;25.13;37.88;101198.28;5019607;27;98653;-66
2023/06/09 01:45:13;;;;;;;10.65;5.43;;;;;;;25.20;38.05;101194.91;5016316;27;99216;-66
2023/06/09 01:47:40;;;;;;;10.50;5.72;;;;;;;25.11;38.15;101197.56;5019807;27;98898;-66
2023/06/09 01:50:14;;;;;;;8.32;6.07;;;;;;;25.21;38.13;101193.88;5020587;27;97160;-67
2023/06/09 01:52:50;;;;;;;11.07;5.75;;;;;;;25.30;38.12;101192.22;5020783;27;97763;-67
2023/06/09 01:55:25;;;;;;;8.98;5.93;;;;;;;25.24;38.21;101185.50;5029688;27;99350;-67
2023/06/09 01:57:54;;;;;;;8.57;5.35;;;;;;;25.12;38.47;101186.63;5029218;27;99294;-67
2023/06/09 02:00:22;;;;;;;13.45;5.63;;;;;;;25.05;38.56;101185.44;5021946;27;98036;-67
2023/06/09 02:02:53;;;;;;;11.93;5.78;;;;;;;25.23;38.14;101183.78;5020463;27;97889;-67
2023/06/09 02:05:21;;;;;;;12.32;5.43;;;;;;;25.12;38.49;101186.63;5017051;27;98465;-66
2023/06/09 02:07:49;;;;;;;14.63;5.88;;;;;;;25.22;38.01;101194.75;5019043;27;101607;-65
2023/06/09 02:10:17;;;;;;;9.02;5.72;;;;;;;25.15;38.42;101196.28;5016522;27;98636;-65
2023/06/09 02:12:44;;;;;;;13.65;5.63;;;;;;;25.06;38.13;101189.88;5021465;27;97722;-65
2023/06/09 02:15:11;;;;;;;12.18;5.55;;;;;;;25.02;38.54;101191.97;5017900;27;99180;-66
2023/06/09 02:17:39;;;;;;;11.05;6.43;;;;;;;24.97;38.42;101186.13;5015586;27;99772;-66
2023/06/09 02:20:08;;;;;;;11.45;5.05;;;;;;;25.01;38.35;101184.84;5017514;27;98921;-67
2023/06/09 02:22:35;;;;;;;11.57;5.60;;;;;;;25.10;38.15;101182.31;5016504;27;97589;-66
2023/06/09 02:25:01;;;;;;;13.13;6.55;;;;;;;24.98;38.00;101187.84;5027952;27;99092;-66
2023/06/09 02:27:28;;;;;;;10.45;4.93;;;;;;;24.99;38.07;101192.28;5033628;27;98857;-66
2023/06/09 02:29:56;;;;;;;11.32;6.65;;;;;;;24.86;38.23;101190.75;5017990;27;98705;-66
2023/06/09 02:32:22;;;;;;;9.27;6.15;;;;;;;24.99;38.03;101189.56;5018234;27;97751;-66
2023/06/09 02:34:48;;;;;;;10.70;6.03;;;;;;;24.74;38.62;101184.59;5015307;27;100562;-65
2023/06/09 02:37:15;;;;;;;8.77;5.85;;;;;;;24.75;38.48;101190.81;5018063;27;98826;-67
2023/06/09 02:39:41;;;;;;;12.88;5.97;;;;;;;24.43;39.31;101188.22;5023919;27;97561;-66
2023/06/09 02:42:08;;;;;;;10.75;5.78;;;;;;;24.74;38.40;101186.44;5031125;27;96954;-66
2023/06/09 02:44:37;;;;;;;12.45;5.75;;;;;;;24.68;38.50;101187.78;5033460;27;99143;-66
2023/06/09 02:47:05;;;;;;;9.75;6.03;;;;;;;24.80;38.34;101189.44;5032065;27;98853;-66
2023/06/09 02:49:32;;;;;;;10.20;5.25;;;;;;;24.76;38.67;101185.28;5030650;27;97077;-67
2023/06/09 02:51:58;;;;;;;7.60;5.10;;;;;;;24.69;38.66;101188.66;5019870;27;98776;-65
2023/06/09 02:54:24;;;;;;;10.05;5.18;;;;;;;24.71;38.49;101187.53;5023276;27;99154;-65
2023/06/09 02:56:51;;;;;;;9.15;5.50;;;;;;;24.84;38.31;101192.72;5030920;27;98974;-65
2023/06/09 02:59:18;;;;;;;10.23;5.40;;;;;;;24.66;38.53;101195.19;5028007;27;96839;-66
2023/06/09 03:01:44;;;;;;;8.15;5.15;;;;;;;24.76;38.38;101203.34;5028654;27;96804;-66
2023/06/09 03:04:12;;;;;;;9.95;6.22;;;;;;;24.72;38.15;101201.91;5028445;27;98944;-66
2023/06/09 03:06:41;;;;;;;13.57;5.78;;;;;;;24.69;38.11;101203.03;5031305;27;98797;-66
2023/06/09 03:09:10;;;;;;;10.50;5.82;;;;;;;24.54;38.83;101205.25;5023930;27;96855;-66
2023/06/09 03:11:37;;;;;;;8.50;5.78;;;;;;;24.27;39.17;101194.13;5034965;27;97889;-66
2023/06/09 03:14:03;;;;;;;8.55;5.70;;;;;;;24.49;38.71;101201.19;5030711;27;98245;-65
2023/06/09 03:16:30;;;;;;;7.95;5.57;;;;;;;24.45;38.77;101205.16;5016058;27;98938;-66
2023/06/09 03:18:56;;;;;;;14.88;6.47;;;;;;;24.50;38.74;101211.03;5016260;27;97606;-66
2023/06/09 03:21:24;;;;;;;10.52;5.80;;;;;;;24.47;38.90;101211.31;5016584;27;97653;-66
2023/06/09 03:23:51;;;;;;;10.50;5.47;;;;;;;24.49;38.48;101209.31;5018219;27;99820;-66
2023/06/09 03:26:17;;;;;;;10.13;5.57;;;;;;;24.52;38.41;101211.75;5027537;27;99450;-65
2023/06/09 03:28:44;;;;;;;9.82;6.30;;;;;;;24.59;38.00;101213.78;5030805;27;97095;-65
2023/06/09 03:31:13;;;;;;;10.45;5.30;;;;;;;24.61;38.18;101213.66;5020253;27;98692;-65
2023/06/09 03:33:39;;;;;;;9.30;6.03;;;;;;;24.41;38.16;101211.84;5015771;27;99171;-66
2023/06/09 03:36:06;;;;;;;10.40;5.93;;;;;;;24.42;38.16;101214.38;5015967;27;98678;-66
2023/06/09 03:38:33;;;;;;;9.95;5.65;;;;;;;24.49;38.18;101225.50;5016787;27;100194;-66
2023/06/09 03:40:59;;;;;;;8.13;5.45;;;;;;;24.51;38.10;101219.00;5018343;27;97188;-66
2023/06/09 03:43:26;;;;;;;8.80;5.20;;;;;;;24.57;38.31;101220.31;5015591;27;98840;-68
2023/06/09 03:45:52;;;;;;;9.20;5.57;;;;;;;24.58;37.99;101217.47;5015189;27;99697;-66
2023/06/09 03:48:18;;;;;;;12.45;6.22;;;;;;;24.52;37.97;101217.16;5015233;27;97418;-67
2023/06/09 03:50:45;;;;;;;14.40;5.72;;;;;;;24.54;37.75;101220.59;5033573;27;97121;-66
2023/06/09 03:53:11;;;;;;;8.35;5.07;;;;;;;24.56;37.59;101216.75;5023764;27;99168;-67
2023/06/09 03:55:39;;;;;;;14.13;5.95;;;;;;;24.58;37.87;101222.03;5020477;27;98969;-67
2023/06/09 03:58:05;;;;;;;14.65;5.85;;;;;;;24.61;37.60;101219.91;5037820;27;96978;-66
2023/06/09 04:00:32;;;;;;;8.20;5.30;;;;;;;24.70;36.98;101218.25;5021528;27;97574;-66
2023/06/09 04:02:58;;;;;;;8.45;5.28;;;;;;;24.57;36.88;101218.47;5022684;27;98975;-66
2023/06/09 04:05:25;;;;;;;13.98;5.50;;;;;;;24.68;36.89;101217.53;5020189;27;98585;-67
2023/06/09 04:07:52;;;;;;;9.85;6.18;;;;;;;24.68;36.31;101220.22;5021265;27;96980;-66
2023/06/09 04:10:19;;;;;;;10.68;5.05;;;;;;;24.81;36.18;101222.75;5017783;27;97731;-66
2023/06/09 04:12:47;;;;;;;12.35;6.00;;;;;;;24.88;35.46;101227.44;5020368;27;98833;-67
2023/06/09 04:15:13;;;;;;;11.10;5.25;;;;;;;24.91;35.37;101221.81;5021932;27;99042;-66
2023/06/09 04:17:39;;;;;;;9.27;5.35;;;;;;;24.96;35.00;101222.25;5020548;27;99070;-66
2023/06/09 04:20:07;;;;;;;9.95;5.00;;;;;;;24.63;35.25;101217.06;5019263;27;98605;-68
2023/06/09 04:22:34;;;;;;;11.43;4.90;;;;;;;24.81;35.20;101222.75;5018557;27;101542;-66
2023/06/09 04:25:01;;;;;;;11.70;4.97;;;;;;;24.88;35.28;101223.88;5026149;27;99426;-66
2023/06/09 04:27:28;;;;;;;11.38;5.07;;;;;;;24.83;34.61;101228.84;5035620;27;97244;-66
2023/06/09 04:29:57;;;;;;;9.52;5.55;;;;;;;24.80;34.61;101219.19;5026856;27;99379;-66
2023/06/09 04:32:23;;;;;;;10.68;7.25;;;;;;;24.91;34.99;101227.22;5016171;27;98964;-66
2023/06/09 04:34:50;;;;;;;10.60;5.13;;;;;;;24.75;34.42;101216.00;5017433;27;98706;-66
2023/06/09 04:37:16;;;;;;;7.88;4.95;;;;;;;24.89;34.13;101222.91;5018499;27;99049;-65
2023/06/09 04:39:45;;;;;;;8.32;4.93;;;;;;;24.98;33.64;101222.13;5026816;27;98828;-66
2023/06/09 04:42:12;;;;;;;7.57;4.65;;;;;;;25.12;33.39;101213.66;5035861;27;99454;-66
2023/06/09 04:44:39;;;;;;;7.72;4.50;;;;;;;25.14;33.96;101221.66;5036401;27;98637;-66
2023/06/09 04:47:07;;;;;;;8.90;5.50;;;;;;;25.18;32.69;101217.66;5033651;27;96752;-67
2023/06/09 04:49:35;;;;;;;7.57;4.60;;;;;;;25.44;32.04;101218.88;5029967;27;99417;-66
2023/06/09 04:52:02;;;;;;;9.65;4.50;;;;;;;25.37;31.50;101212.31;5020111;27;99349;-66
2023/06/09 04:54:29;;;;;;;6.93;4.10;;;;;;;25.57;30.95;101207.78;5022550;27;100787;-68
2023/06/09 04:56:58;;;;;;;10.00;4.53;;;;;;;25.64;30.69;101208.97;5041518;27;97273;-67
2023/06/09 04:59:24;;;;;;;7.68;3.92;;;;;;;26.13;29.38;101206.13;5024135;27;99315;-67
2023/06/09 05:01:52;;;;;;;8.35;4.35;;;;;;;27.14;28.16;101208.22;5011731;27;98946;-67
2023/06/09 05:04:20;;;;;;;17.02;4.70;;;;;;;28.62;25.60;101202.22;5014062;27;99091;-68
2023/06/09 05:06:47;;;;;;;7.38;4.10;;;;;;;29.25;24.84;101210.09;5016473;27;97588;-66
2023/06/09 05:09:14;;;;;;;7.10;4.00;;;;;;;29.64;23.25;101200.38;5013744;27;98930;-63
2023/06/09 05:11:40;;;;;;;7.43;3.67;;;;;;;29.41;23.58;101209.31;5013367;27;99104;-63
2023/06/09 05:14:07;;;;;;;7.38;3.70;;;;;;;28.94;23.27;101204.34;5012150;27;98895;-66
2023/06/09 05:16:35;;;;;;;8.90;3.67;;;;;;;28.46;23.43;101207.56;5012779;27;102642;-67
2023/06/09 05:19:01;;;;;;;8.35;3.40;;;;;;;27.79;23.75;101219.84;5019608;27;97623;-67
2023/06/09 05:21:29;;;;;;;5.68;3.42;;;;;;;27.97;24.19;101215.28;5012199;27;99124;-68
2023/06/09 05:23:55;;;;;;;6.97;3.38;;;;;;;27.69;24.51;101219.09;5019755;27;99315;-67
2023/06/09 05:26:27;;;;;;;3.88;3.10;;;;;;;27.84;23.98;101219.38;5031210;27;96670;-66
2023/06/09 05:28:54;;;;;;;6.72;2.67;;;;;;;27.68;23.48;101225.50;5023025;27;98554;-63
2023/06/09 05:31:20;;;;;;;8.23;2.80;;;;;;;27.51;23.66;101223.56;5019552;27;99307;-64
2023/06/09 05:33:47;;;;;;;9.60;3.70;;;;;;;27.52;23.37;101225.31;5021011;27;99230;-63
2023/06/09 05:36:13;;;;;;;8.80;3.08;;;;;;;27.18;23.16;101219.59;5024152;27;98873;-63
2023/06/09 05:38:41;;;;;;;6.28;3.45;;;;;;;27.44;23.15;101225.22;5017757;27;96949;-63
2023/06/09 05:41:08;;;;;;;8.02;3.65;;;;;;;27.53;23.20;101222.47;5028727;27;99009;-66
2023/06/09 05:43:35;;;;;;;8.05;3.17;;;;;;;27.78;23.40;101226.28;5031299;27;97727;-65
2023/06/09 05:46:01;;;;;;;7.82;3.80;;;;;;;27.92;22.66;101223.03;5043391;27;97122;-63
2023/06/09 05:48:28;;;;;;;4.60;2.63;;;;;;;27.88;22.43;101218.94;4990865;27;1152267;-63
2023/06/09 05:50:57;;;;;;;6.03;3.20;;;;;;;28.11;22.20;101220.16;5036560;27;99038;-64
2023/06/09 05:53:23;;;;;;;8.15;3.10;;;;;;;28.01;22.13;101224.84;5036255;27;99740;-63
2023/06/09 05:55:52;;;;;;;6.82;3.20;;;;;;;28.30;22.12;101224.59;5045878;27;96686;-63
2023/06/09 05:58:18;;;;;;;7.78;3.53;;;;;;;28.17;21.89;101235.00;5032693;27;97648;-64
2023/06/09 06:00:46;;;;;;;9.32;3.50;;;;;;;28.10;22.21;101232.03;5037372;27;99031;-64
2023/06/09 06:03:12;;;;;;;8.20;3.08;;;;;;;28.47;22.00;101241.91;5036230;27;98722;-63
2023/06/09 06:05:38;;;;;;;6.78;3.13;;;;;;;28.26;21.75;101244.09;5032145;27;97214;-64
2023/06/09 06:08:06;;;;;;;12.75;3.35;;;;;;;28.10;22.35;101242.91;5032315;27;98682;-64
2023/06/09 06:10:34;;;;;;;11.93;3.13;;;;;;;28.88;21.75;101241.19;5033318;27;101420;-63
2023/06/09 06:13:03;;;;;;;6.85;3.25;;;;;;;28.87;21.72;101236.78;5036564;27;98816;-64
2023/06/09 06:15:30;;;;;;;5.40;3.05;;;;;;;29.11;20.88;101235.19;5029437;27;97581;-64
2023/06/09 06:17:56;;;;;;;6.03;3.03;;;;;;;29.09;21.34;101238.06;5028651;27;97416;-63
2023/06/09 06:20:23;;;;;;;6.32;3.25;;;;;;;29.17;20.98;101245.41;5033135;27;99315;-63
2023/06/09 06:22:57;;;;;;;4.68;3.00;;;;;;;29.23;21.15;101239.31;5035243;27;98885;-66
2023/06/09 06:25:23;;;;;;;6.65;3.20;;;;;;;29.13;20.39;101238.63;5025001;27;96916;-64
2023/06/09 06:27:50;;;;;;;6.63;2.90;;;;;;;29.18;20.77;101231.66;5039520;27;97930;-64
2023/06/09 06:30:18;;;;;;;7.25;3.22;;;;;;;29.06;20.78;101240.28;5037816;27;98907;-63
2023/06/09 06:32:51;;;;;;;8.80;2.38;;;;;;;29.32;20.79;101244.66;5028041;27;99422;-65
2023/06/09 06:35:27;;;;;;;4.15;2.85;;;;;;;29.23;20.87;101240.19;5031054;27;98030;-64
2023/06/09 06:37:54;;;;;;;5.47;2.80;;;;;;;29.25;20.66;101248.19;5028395;27;96822;-62
2023/06/09 06:40:22;;;;;;;9.25;3.30;;;;;;;29.33;20.00;101245.50;5032718;27;99481;-64
2023/06/09 06:42:49;;;;;;;9.02;2.90;;;;;;;29.30;20.04;101243.09;5043111;27;101243;-63
2023/06/09 06:45:15;;;;;;;4.82;3.30;;;;;;;29.30;20.43;101246.69;5035222;27;96826;-64
2023/06/09 06:47:45;;;;;;;4.80;3.15;;;;;;;29.40;20.53;101249.31;5038983;27;97052;-62
2023/06/09 06:50:12;;;;;;;5.25;3.35;;;;;;;30.03;20.45;101246.94;5034038;27;99121;-64
2023/06/09 06:52:39;;;;;;;6.72;3.28;;;;;;;29.80;20.28;101247.75;5029369;27;98933;-63
2023/06/09 06:55:07;;;;;;;7.70;3.40;;;;;;;29.81;20.76;101244.81;5034427;27;96916;-63
2023/06/09 06:57:33;;;;;;;6.75;3.33;;;;;;;29.77;20.54;101251.63;5041463;27;97202;-64
2023/06/09 07:00:00;;;;;;;4.47;2.95;;;;;;;29.91;19.96;101241.97;5034871;27;99048;-63
2023/06/09 07:02:26;;;;;;;9.35;3.20;;;;;;;29.77;20.02;101248.06;5031506;27;98067;-63
2023/06/09 07:04:54;;;;;;;3.50;2.70;;;;;;;29.80;20.19;101245.00;5031357;27;96832;-63
2023/06/09 07:07:25;;;;;;;7.63;3.63;;;;;;;29.76;20.41;101243.63;5033363;27;97902;-64
2023/06/09 07:09:51;;;;;;;7.20;3.40;;;;;;;29.64;20.10;101252.13;5028324;27;99396;-64
2023/06/09 07:12:18;;;;;;;7.25;3.50;;;;;;;29.49;20.23;101261.91;5036246;27;97517;-67
2023/06/09 07:14:44;;;;;;;5.95;3.28;;;;;;;29.69;20.51;101266.06;5037447;27;96997;-67
2023/06/09 07:17:11;;;;;;;6.68;3.70;;;;;;;29.70;20.30;101275.09;5039622;27;96800;-67
2023/06/09 07:19:39;;;;;;;5.75;3.15;;;;;;;30.02;20.50;101266.19;5034192;27;99119;-66
2023/06/09 07:22:07;;;;;;;6.72;3.53;;;;;;;30.17;20.21;101269.97;5026230;27;99325;-66
2023/06/09 07:24:33;;;;;;;5.78;3.15;;;;;;;30.07;20.14;101272.81;5031467;27;97557;-67
2023/06/09 07:26:59;;;;;;;8.98;3.40;;;;;;;30.30;20.38;101267.59;5042970;27;96929;-67
2023/06/09 07:29:27;;;;;;;5.22;3.22;;;;;;;29.76;20.87;101265.41;5030898;27;98893;-67
2023/06/09 07:31:53;;;;;;;10.55;3.63;;;;;;;29.48;21.21;101260.22;5031163;27;98797;-67
2023/06/09 07:34:20;;;;;;;7.00;3.22;;;;;;;29.40;21.83;101260.19;5037479;27;97508;-68
2023/06/09 07:36:50;;;;;;;6.88;3.40;;;;;;;29.46;21.86;101259.53;5030337;27;96752;-67
2023/06/09 07:39:18;;;;;;;7.53;3.58;;;;;;;29.33;21.83;101267.28;5034771;27;99139;-67
2023/06/09 07:41:45;;;;;;;7.88;3.45;;;;;;;30.00;21.72;101260.03;5032675;27;99883;-66
2023/06/09 07:44:11;;;;;;;12.45;3.75;;;;;;;29.93;21.88;101264.47;5030156;27;96726;-67
2023/06/09 07:46:38;;;;;;;12.02;3.30;;;;;;;30.37;20.90;101265.03;5031725;27;96893;-67
2023/06/09 07:49:04;;;;;;;7.47;3.28;;;;;;;30.59;21.12;101255.34;5035533;27;99097;-67
2023/06/09 07:51:36;;;;;;;8.10;3.33;;;;;;;30.71;20.84;101260.28;5041416;27;101298;-67
2023/06/09 07:54:04;;;;;;;6.88;3.03;;;;;;;30.48;21.27;101268.25;5031453;27;96700;-66
2023/06/09 07:56:32;;;;;;;6.18;2.80;;;;;;;30.62;20.99;101263.16;5032676;27;96819;-66
2023/06/09 07:58:58;;;;;;;8.38;3.28;;;;;;;30.45;21.44;101274.06;5032100;27;99063;-67
2023/06/09 08:01:25;;;;;;;10.25;3.22;;;;;;;30.40;21.34;101273.72;5031586;27;101573;-67
2023/06/09 08:03:51;;;;;;;5.88;2.92;;;;;;;30.21;21.45;101267.72;5024633;27;101133;-66
2023/06/09 08:06:18;;;;;;;6.38;3.25;;;;;;;30.20;21.57;101266.88;5029495;27;96803;-66
2023/06/09 08:08:44;;;;;;;8.98;3.42;;;;;;;29.49;22.60;101270.09;5029829;27;99036;-66
2023/06/09 08:11:11;;;;;;;7.03;4.47;;;;;;;30.07;22.26;101263.78;5018423;27;99228;-68
2023/06/09 08:13:39;;;;;;;7.72;3.03;;;;;;;29.92;21.98;101258.19;5034675;27;97302;-67
2023/06/09 08:16:06;;;;;;;5.85;3.33;;;;;;;29.98;22.28;101267.56;5038612;27;97176;-66
2023/06/09 08:18:32;;;;;;;6.32;2.83;;;;;;;29.81;22.05;101269.34;5029450;27;98911;-66
2023/06/09 08:20:58;;;;;;;4.60;2.83;;;;;;;29.86;22.67;101271.59;5025573;27;98992;-68
2023/06/09 08:23:25;;;;;;;7.10;3.30;;;;;;;29.96;22.00;101269.56;5030373;27;96694;-67
2023/06/09 08:25:51;;;;;;;9.10;3.53;;;;;;;30.24;22.26;101264.69;5030505;27;98023;-67
2023/06/09 08:28:18;;;;;;;9.93;2.92;;;;;;;30.18;22.06;101268.94;5030306;27;97912;-66
2023/06/09 08:30:46;;;;;;;8.40;3.35;;;;;;;30.38;21.96;101270.31;5025323;27;100107;-67
2023/06/09 08:33:12;;;;;;;10.73;3.33;;;;;;;29.91;22.41;101267.34;5030417;27;97302;-69
2023/06/09 08:35:39;;;;;;;8.30;3.20;;;;;;;30.37;21.73;101267.75;5025448;27;97225;-67
2023/06/09 08:38:06;;;;;;;6.55;3.47;;;;;;;30.25;22.02;101261.78;5028525;27;99183;-67
2023/06/09 08:40:32;;;;;;;6.53;3.58;;;;;;;30.55;21.56;101260.28;5028149;27;97616;-66
2023/06/09 08:43:00;;;;;;;7.57;2.90;;;;;;;30.03;22.26;101263.28;5032027;27;97170;-69
2023/06/09 08:45:29;;;;;;;5.35;2.70;;;;;;;30.37;21.51;101262.31;5032578;27;96909;-67
2023/06/09 08:48:01;;;;;;;6.03;3.00;;;;;;;30.55;21.31;101268.47;5031557;27;99595;-67
2023/06/09 08:50:30;;;;;;;7.60;3.05;;;;;;;30.34;21.80;101270.81;5030932;27;99331;-67
2023/06/09 08:52:57;;;;;;;4.70;3.40;;;;;;;30.74;20.92;101269.97;5029045;27;96764;-67
2023/06/09 08:55:25;;;;;;;6.53;3.42;;;;;;;30.71;20.63;101264.88;5031866;27;97337;-67
2023/06/09 08:57:52;;;;;;;7.05;2.60;;;;;;;30.79;20.98;101264.84;5032505;27;99194;-66
2023/06/09 09:00:19;;;;;;;5.82;3.00;;;;;;;31.07;20.56;101274.38;5030194;27;98971;-67
2023/06/09 09:02:46;;;;;;;7.13;2.85;;;;;;;31.38;20.73;101268.09;5030815;27;96775;-67
2023/06/09 09:05:13;;;;;;;5.70;3.00;;;;;;;31.65;20.89;101275.88;5033973;27;97233;-67
2023/06/09 09:07:40;;;;;;;11.23;3.95;;;;;;;31.57;20.72;101270.44;5036075;27;99069;-67
2023/06/09 09:10:11;;;;;;;6.00;2.65;;;;;;;31.89;20.67;101267.56;5030306;27;98875;-66
2023/06/09 09:12:48;;;;;;;7.53;3.00;;;;;;;32.10;19.68;101263.31;5029842;27;96849;-66
2023/06/09 09:15:14;;;;;;;5.05;3.25;;;;;;;32.26;20.12;101264.06;5028131;27;97212;-66
2023/06/09 09:17:41;;;;;;;7.47;3.20;;;;;;;32.69;19.71;101261.69;5024102;27;98907;-66
2023/06/09 09:20:08;;;;;;;5.22;3.25;;;;;;;32.65;19.53;101257.56;5031645;27;98836;-67
2023/06/09 09:22:45;;;;;;;8.23;2.67;;;;;;;32.60;19.99;101254.53;5039355;27;97140;-68
2023/06/09 09:25:21;;;;;;;10.43;2.88;;;;;;;32.33;19.90;101255.97;5036965;27;97047;-67
2023/06/09 09:27:59;;;;;;;11.65;3.28;;;;;;;32.05;20.35;101256.50;5030112;27;99366;-68
2023/06/09 09:30:41;;;;;;;9.27;3.15;;;;;;;32.21;20.91;101254.72;5030264;27;98797;-67
2023/06/09 09:33:08;;;;;;;6.95;3.13;;;;;;;32.30;20.57;101250.88;5027386;27;97256;-68
2023/06/09 09:35:37;;;;;;;9.80;3.53;;;;;;;32.51;20.45;101251.03;5032275;27;96939;-67
2023/06/09 09:38:11;;;;;;;7.88;3.25;;;;;;;32.73;20.44;101247.44;5031359;27;102577;-67
2023/06/09 09:40:42;;;;;;;5.20;3.25;;;;;;;32.66;20.31;101253.81;5029690;27;98835;-67
2023/06/09 09:43:09;;;;;;;8.20;2.92;;;;;;;32.71;19.81;101252.22;5026490;27;97790;-67
2023/06/09 09:45:37;;;;;;;7.88;3.67;;;;;;;32.77;20.33;101246.00;5028913;27;97434;-67
2023/06/09 09:48:11;;;;;;;7.05;3.53;;;;;;;32.92;20.40;101245.19;5032122;27;98961;-67
2023/06/09 09:50:38;;;;;;;9.88;3.65;;;;;;;33.00;20.53;101242.38;5029959;27;99244;-66
2023/06/09 09:53:06;;;;;;;8.40;3.30;;;;;;;33.08;20.61;101242.28;5032741;27;97297;-66
2023/06/09 09:55:33;;;;;;;6.78;3.30;;;;;;;33.05;20.42;101243.50;5021648;27;96789;-67
2023/06/09 09:58:04;;;;;;;5.22;3.58;;;;;;;32.86;20.79;101237.72;5030571;27;98912;-66
2023/06/09 10:00:32;;;;;;;8.38;4.40;;;;;;;32.97;20.57;101240.84;5020766;27;98821;-66
2023/06/09 10:03:01;;;;;;;8.95;3.45;;;;;;;33.43;20.50;101241.50;5026169;27;96806;-66
2023/06/09 10:05:31;;;;;;;5.90;3.30;;;;;;;33.37;20.40;101242.28;5035873;27;97104;-66
2023/06/09 10:08:02;;;;;;;14.63;3.30;;;;;;;33.35;20.07;101244.34;5030522;27;99108;-68
2023/06/09 10:10:31;;;;;;;7.88;3.58;;;;;;;33.45;20.36;101233.94;5030666;27;99098;-67
2023/06/09 10:12:59;;;;;;;6.55;3.35;;;;;;;33.51;20.79;101235.06;5032875;27;97388;-66
2023/06/09 10:15:26;;;;;;;5.38;3.28;;;;;;;33.65;20.96;101234.19;5036895;27;97221;-66
2023/06/09 10:17:54;;;;;;;7.65;3.72;;;;;;;33.73;20.90;101227.78;5031181;27;99477;-67
2023/06/09 10:20:21;;;;;;;10.32;3.85;;;;;;;33.94;20.95;101233.25;5029575;27;97587;-67
2023/06/09 10:22:48;;;;;;;4.68;2.85;;;;;;;33.68;20.40;101232.94;5036333;27;97253;-67
2023/06/09 10:25:16;;;;;;;4.95;2.88;;;;;;;33.72;19.70;101224.19;5028414;27;97234;-66
2023/06/09 10:27:45;;;;;;;5.13;3.25;;;;;;;33.86;20.10;101225.19;5029422;27;97816;-66
2023/06/09 10:30:15;;;;;;;4.72;3.17;;;;;;;34.27;19.70;101231.72;5024855;27;101999;-66
2023/06/09 10:32:47;;;;;;;6.13;3.47;;;;;;;34.70;19.77;101217.94;5028452;27;96900;-66
2023/06/09 10:35:17;;;;;;;5.53;3.00;;;;;;;34.70;19.38;101223.41;5027490;27;96843;-66
2023/06/09 10:37:46;;;;;;;6.93;3.30;;;;;;;34.80;19.06;101221.19;5033648;27;99323;-67
2023/06/09 10:40:18;;;;;;;6.32;3.10;;;;;;;34.72;18.73;101221.38;5028373;27;98878;-67
2023/06/09 10:43:00;;;;;;;5.88;2.90;;;;;;;34.86;18.89;101220.38;5031693;27;97159;-67
2023/06/09 10:45:48;;;;;;;6.03;2.90;;;;;;;35.09;18.79;101200.88;5024404;27;96852;-66
2023/06/09 10:48:14;;;;;;;6.60;2.70;;;;;;;34.67;18.50;101212.81;5023784;27;99692;-67
2023/06/09 10:50:40;;;;;;;6.32;3.03;;;;;;;34.80;18.67;101212.94;5032678;27;99088;-67
2023/06/09 10:53:15;;;;;;;3.63;2.40;;;;;;;34.44;18.32;101206.75;5033668;27;98477;-67
2023/06/09 10:55:42;;;;;;;3.47;2.50;;;;;;;34.09;18.13;101203.88;5025098;27;96953;-68
2023/06/09 10:58:35;;;;;;;3.85;2.78;;;;;;;33.77;18.04;101194.31;5029641;27;99062;-66
2023/06/09 11:01:06;;;;;;;2.72;2.53;;;;;;;33.86;18.59;101197.78;5024874;27;99006;-66
2023/06/09 11:03:32;;;;;;;2.80;2.55;;;;;;;34.04;18.66;101198.16;5026866;27;97191;-67
2023/06/09 11:06:00;;;;;;;5.47;2.85;;;;;;;34.01;18.34;101196.66;5028677;27;96868;-68
2023/06/09 11:08:27;;;;;;;6.47;3.00;;;;;;;33.83;17.74;101193.53;5028945;27;99271;-67
2023/06/09 11:10:54;;;;;;;3.95;2.83;;;;;;;34.05;18.08;101191.63;5022645;27;98883;-67
2023/06/09 11:13:41;;;;;;;5.38;2.58;;;;;;;33.97;17.89;101189.88;5028640;27;96795;-67
2023/06/09 11:16:09;;;;;;;4.63;3.22;;;;;;;34.00;18.18;101189.47;5029218;27;96830;-67
2023/06/09 11:18:36;;;;;;;2.60;2.40;;;;;;;33.80;18.28;101191.19;5028028;27;97866;-67
2023/06/09 11:21:20;;;;;;;3.05;2.58;;;;;;;33.70;18.45;101181.53;5037308;27;99452;-67
2023/06/09 11:24:03;;;;;;;18.75;11.25;;;;;;;33.65;18.35;101184.00;5039351;27;98504;-67
2023/06/09 11:26:32;;;;;;;6.40;2.80;;;;;;;33.65;18.38;101179.38;5033804;27;96821;-66